sensor_id;sensor_type;location;lat;lon;timestamp;P1;durP1;ratioP1;P2;durP2;ratioP2
28760;SDS011;15917;50.014;8.352;2023-05-07T00:00:36;2.03;;;0.82;;
28760;SDS011;15917;50.014;8.352;2023-05-07T00:03:02;2.20;;;1.20;;
28760;SDS011;15917;50.014;8.352;2023-05-07T00:05:28;6.90;;;1.10;;
28760;SDS011;15917;50.014;8.352;2023-05-07T00:07:54;9.70;;;1.48;;
28760;SDS011;15917;50.014;8.352;2023-05-07T00:10:20;6.72;;;0.93;;
28760;SDS011;15917;50.014;8.352;2023-05-07T00:12:45;1.92;;;1.15;;
28760;SDS011;15917;50.014;8.352;2023-05-07T00:15:11;1.95;;;1.08;;
28760;SDS011;15917;50.014;8.352;2023-05-07T00:17:37;3.28;;;1.42;;
28760;SDS011;15917;50.014;8.352;2023-05-07T00:20:03;3.80;;;1.80;;
28760;SDS011;15917;50.014;8.352;2023-05-07T00:22:30;2.25;;;1.23;;
28760;SDS011;15917;50.014;8.352;2023-05-07T00:24:57;3.00;;;1.60;;
28760;SDS011;15917;50.014;8.352;2023-05-07T00:27:24;2.03;;;1.27;;
28760;SDS011;15917;50.014;8.352;2023-05-07T00:29:50;6.40;;;1.27;;
28760;SDS011;15917;50.014;8.352;2023-05-07T00:32:15;4.07;;;2.42;;
28760;SDS011;15917;50.014;8.352;2023-05-07T00:34:41;4.85;;;1.38;;
28760;SDS011;15917;50.014;8.352;2023-05-07T00:37:07;8.30;;;1.40;;
28760;SDS011;15917;50.014;8.352;2023-05-07T00:39:34;3.58;;;1.20;;
28760;SDS011;15917;50.014;8.352;2023-05-07T00:42:00;3.60;;;1.10;;
28760;SDS011;15917;50.014;8.352;2023-05-07T00:44:26;2.03;;;1.20;;
28760;SDS011;15917;50.014;8.352;2023-05-07T00:46:52;3.30;;;1.20;;
28760;SDS011;15917;50.014;8.352;2023-05-07T00:49:19;3.00;;;1.25;;
28760;SDS011;15917;50.014;8.352;2023-05-07T00:51:45;1.92;;;1.13;;
28760;SDS011;15917;50.014;8.352;2023-05-07T00:54:11;1.92;;;1.20;;
28760;SDS011;15917;50.014;8.352;2023-05-07T00:56:38;1.40;;;1.02;;
28760;SDS011;15917;50.014;8.352;2023-05-07T00:59:05;3.55;;;1.42;;
28760;SDS011;15917;50.014;8.352;2023-05-07T01:01:31;5.57;;;1.30;;
28760;SDS011;15917;50.014;8.352;2023-05-07T01:03:56;1.33;;;1.13;;
28760;SDS011;15917;50.014;8.352;2023-05-07T01:06:23;3.33;;;1.30;;
28760;SDS011;15917;50.014;8.352;2023-05-07T01:08:52;3.70;;;1.70;;
28760;SDS011;15917;50.014;8.352;2023-05-07T01:11:21;3.92;;;1.42;;
28760;SDS011;15917;50.014;8.352;2023-05-07T01:13:47;4.68;;;1.80;;
28760;SDS011;15917;50.014;8.352;2023-05-07T01:16:14;2.88;;;1.70;;
28760;SDS011;15917;50.014;8.352;2023-05-07T01:18:40;6.25;;;1.45;;
28760;SDS011;15917;50.014;8.352;2023-05-07T01:21:06;6.55;;;1.90;;
28760;SDS011;15917;50.014;8.352;2023-05-07T01:23:33;5.95;;;2.15;;
28760;SDS011;15917;50.014;8.352;2023-05-07T01:26:00;2.42;;;1.42;;
28760;SDS011;15917;50.014;8.352;2023-05-07T01:28:28;2.85;;;1.45;;
28760;SDS011;15917;50.014;8.352;2023-05-07T01:30:58;2.83;;;1.42;;
28760;SDS011;15917;50.014;8.352;2023-05-07T01:33:26;2.63;;;1.70;;
28760;SDS011;15917;50.014;8.352;2023-05-07T01:35:56;6.22;;;1.67;;
28760;SDS011;15917;50.014;8.352;2023-05-07T01:38:25;2.40;;;1.80;;
28760;SDS011;15917;50.014;8.352;2023-05-07T01:40:52;3.85;;;2.47;;
28760;SDS011;15917;50.014;8.352;2023-05-07T01:43:18;1.73;;;1.30;;
28760;SDS011;15917;50.014;8.352;2023-05-07T01:45:44;4.57;;;2.00;;
28760;SDS011;15917;50.014;8.352;2023-05-07T01:48:11;5.65;;;1.40;;
28760;SDS011;15917;50.014;8.352;2023-05-07T01:50:37;2.75;;;1.40;;
28760;SDS011;15917;50.014;8.352;2023-05-07T01:53:04;1.58;;;1.13;;
28760;SDS011;15917;50.014;8.352;2023-05-07T01:55:30;1.92;;;1.30;;
28760;SDS011;15917;50.014;8.352;2023-05-07T01:57:55;1.92;;;1.13;;
28760;SDS011;15917;50.014;8.352;2023-05-07T02:00:21;3.28;;;1.45;;
28760;SDS011;15917;50.014;8.352;2023-05-07T02:02:47;2.53;;;1.45;;
28760;SDS011;15917;50.014;8.352;2023-05-07T02:05:25;3.50;;;1.63;;
28760;SDS011;15917;50.014;8.352;2023-05-07T02:07:57;3.28;;;1.05;;
28760;SDS011;15917;50.014;8.352;2023-05-07T02:10:25;2.45;;;1.13;;
28760;SDS011;15917;50.014;8.352;2023-05-07T02:12:50;4.43;;;1.40;;
28760;SDS011;15917;50.014;8.352;2023-05-07T02:15:16;1.98;;;1.38;;
28760;SDS011;15917;50.014;8.352;2023-05-07T02:17:58;2.28;;;1.20;;
28760;SDS011;15917;50.014;8.352;2023-05-07T02:20:31;3.10;;;1.50;;
28760;SDS011;15917;50.014;8.352;2023-05-07T02:22:57;3.58;;;1.38;;
28760;SDS011;15917;50.014;8.352;2023-05-07T02:25:25;7.78;;;1.73;;
28760;SDS011;15917;50.014;8.352;2023-05-07T02:27:50;7.47;;;1.58;;
28760;SDS011;15917;50.014;8.352;2023-05-07T02:30:18;2.25;;;1.40;;
28760;SDS011;15917;50.014;8.352;2023-05-07T02:32:44;3.47;;;1.35;;
28760;SDS011;15917;50.014;8.352;2023-05-07T02:35:10;2.40;;;1.60;;
28760;SDS011;15917;50.014;8.352;2023-05-07T02:37:36;5.05;;;1.77;;
28760;SDS011;15917;50.014;8.352;2023-05-07T02:40:02;2.65;;;1.45;;
28760;SDS011;15917;50.014;8.352;2023-05-07T02:42:29;2.78;;;1.35;;
28760;SDS011;15917;50.014;8.352;2023-05-07T02:44:55;5.05;;;1.38;;
28760;SDS011;15917;50.014;8.352;2023-05-07T02:47:21;3.72;;;1.88;;
28760;SDS011;15917;50.014;8.352;2023-05-07T02:49:47;5.97;;;2.17;;
28760;SDS011;15917;50.014;8.352;2023-05-07T02:52:13;5.45;;;1.60;;
28760;SDS011;15917;50.014;8.352;2023-05-07T02:54:38;1.80;;;1.50;;
28760;SDS011;15917;50.014;8.352;2023-05-07T02:57:04;3.45;;;1.58;;
28760;SDS011;15917;50.014;8.352;2023-05-07T02:59:30;3.08;;;1.65;;
28760;SDS011;15917;50.014;8.352;2023-05-07T03:01:56;2.85;;;1.60;;
28760;SDS011;15917;50.014;8.352;2023-05-07T03:04:21;5.40;;;2.30;;
28760;SDS011;15917;50.014;8.352;2023-05-07T03:06:47;5.80;;;1.90;;
28760;SDS011;15917;50.014;8.352;2023-05-07T03:09:13;2.22;;;1.65;;
28760;SDS011;15917;50.014;8.352;2023-05-07T03:11:39;3.88;;;1.48;;
28760;SDS011;15917;50.014;8.352;2023-05-07T03:14:05;7.18;;;1.70;;
28760;SDS011;15917;50.014;8.352;2023-05-07T03:16:30;4.50;;;1.92;;
28760;SDS011;15917;50.014;8.352;2023-05-07T03:18:56;5.30;;;1.70;;
28760;SDS011;15917;50.014;8.352;2023-05-07T03:21:22;3.47;;;1.60;;
28760;SDS011;15917;50.014;8.352;2023-05-07T03:23:48;3.50;;;1.40;;
28760;SDS011;15917;50.014;8.352;2023-05-07T03:26:14;5.50;;;1.55;;
28760;SDS011;15917;50.014;8.352;2023-05-07T03:28:41;4.20;;;1.97;;
28760;SDS011;15917;50.014;8.352;2023-05-07T03:31:11;3.45;;;1.38;;
28760;SDS011;15917;50.014;8.352;2023-05-07T03:33:38;3.70;;;1.58;;
28760;SDS011;15917;50.014;8.352;2023-05-07T03:36:14;2.67;;;1.83;;
28760;SDS011;15917;50.014;8.352;2023-05-07T03:38:40;5.85;;;1.73;;
28760;SDS011;15917;50.014;8.352;2023-05-07T03:41:06;2.35;;;1.50;;
28760;SDS011;15917;50.014;8.352;2023-05-07T03:43:32;2.28;;;1.45;;
28760;SDS011;15917;50.014;8.352;2023-05-07T03:46:04;8.88;;;2.00;;
28760;SDS011;15917;50.014;8.352;2023-05-07T03:48:29;6.82;;;2.13;;
28760;SDS011;15917;50.014;8.352;2023-05-07T03:50:57;4.53;;;2.08;;
28760;SDS011;15917;50.014;8.352;2023-05-07T03:53:26;9.20;;;2.28;;
28760;SDS011;15917;50.014;8.352;2023-05-07T03:55:52;2.95;;;1.75;;
28760;SDS011;15917;50.014;8.352;2023-05-07T03:58:18;2.58;;;1.60;;
28760;SDS011;15917;50.014;8.352;2023-05-07T04:00:44;4.97;;;1.90;;
28760;SDS011;15917;50.014;8.352;2023-05-07T04:03:21;5.78;;;1.65;;
28760;SDS011;15917;50.014;8.352;2023-05-07T04:05:47;5.07;;;1.80;;
28760;SDS011;15917;50.014;8.352;2023-05-07T04:08:12;4.13;;;1.90;;
28760;SDS011;15917;50.014;8.352;2023-05-07T04:10:41;4.63;;;1.80;;
28760;SDS011;15917;50.014;8.352;2023-05-07T04:13:09;8.15;;;1.67;;
28760;SDS011;15917;50.014;8.352;2023-05-07T04:15:35;6.05;;;1.50;;
28760;SDS011;15917;50.014;8.352;2023-05-07T04:18:02;4.50;;;1.70;;
28760;SDS011;15917;50.014;8.352;2023-05-07T04:20:28;4.63;;;1.77;;
28760;SDS011;15917;50.014;8.352;2023-05-07T04:23:00;4.05;;;2.30;;
28760;SDS011;15917;50.014;8.352;2023-05-07T04:25:25;4.22;;;2.05;;
28760;SDS011;15917;50.014;8.352;2023-05-07T04:27:52;3.13;;;1.58;;
28760;SDS011;15917;50.014;8.352;2023-05-07T04:30:17;4.28;;;1.40;;
28760;SDS011;15917;50.014;8.352;2023-05-07T04:32:43;6.38;;;1.80;;
28760;SDS011;15917;50.014;8.352;2023-05-07T04:35:09;3.60;;;1.70;;
28760;SDS011;15917;50.014;8.352;2023-05-07T04:37:36;4.82;;;1.98;;
28760;SDS011;15917;50.014;8.352;2023-05-07T04:40:03;5.07;;;1.65;;
28760;SDS011;15917;50.014;8.352;2023-05-07T04:42:30;4.27;;;1.63;;
28760;SDS011;15917;50.014;8.352;2023-05-07T04:44:59;2.67;;;1.60;;
28760;SDS011;15917;50.014;8.352;2023-05-07T04:47:25;3.95;;;1.48;;
28760;SDS011;15917;50.014;8.352;2023-05-07T04:49:51;4.78;;;1.90;;
28760;SDS011;15917;50.014;8.352;2023-05-07T04:52:17;4.78;;;2.05;;
28760;SDS011;15917;50.014;8.352;2023-05-07T04:54:43;3.53;;;1.55;;
28760;SDS011;15917;50.014;8.352;2023-05-07T04:57:08;7.43;;;1.77;;
28760;SDS011;15917;50.014;8.352;2023-05-07T04:59:34;3.17;;;1.35;;
28760;SDS011;15917;50.014;8.352;2023-05-07T05:02:00;5.53;;;1.42;;
28760;SDS011;15917;50.014;8.352;2023-05-07T05:04:26;3.25;;;1.80;;
28760;SDS011;15917;50.014;8.352;2023-05-07T05:06:52;8.20;;;1.92;;
28760;SDS011;15917;50.014;8.352;2023-05-07T05:09:18;5.03;;;1.70;;
28760;SDS011;15917;50.014;8.352;2023-05-07T05:11:44;5.93;;;1.55;;
28760;SDS011;15917;50.014;8.352;2023-05-07T05:14:10;8.55;;;2.30;;
28760;SDS011;15917;50.014;8.352;2023-05-07T05:16:36;7.63;;;1.80;;
28760;SDS011;15917;50.014;8.352;2023-05-07T05:19:02;3.17;;;1.45;;
28760;SDS011;15917;50.014;8.352;2023-05-07T05:21:29;6.38;;;1.70;;
28760;SDS011;15917;50.014;8.352;2023-05-07T05:24:01;2.63;;;1.73;;
28760;SDS011;15917;50.014;8.352;2023-05-07T05:26:27;6.07;;;1.58;;
28760;SDS011;15917;50.014;8.352;2023-05-07T05:28:53;4.60;;;2.05;;
28760;SDS011;15917;50.014;8.352;2023-05-07T05:31:20;4.15;;;1.38;;
28760;SDS011;15917;50.014;8.352;2023-05-07T05:33:48;3.70;;;1.92;;
28760;SDS011;15917;50.014;8.352;2023-05-07T05:36:13;6.07;;;1.65;;
28760;SDS011;15917;50.014;8.352;2023-05-07T05:38:40;2.42;;;1.50;;
28760;SDS011;15917;50.014;8.352;2023-05-07T05:41:07;4.72;;;1.60;;
28760;SDS011;15917;50.014;8.352;2023-05-07T05:43:33;1.92;;;1.50;;
28760;SDS011;15917;50.014;8.352;2023-05-07T05:45:59;6.13;;;1.48;;
28760;SDS011;15917;50.014;8.352;2023-05-07T05:48:26;5.47;;;1.55;;
28760;SDS011;15917;50.014;8.352;2023-05-07T05:50:51;2.47;;;1.55;;
28760;SDS011;15917;50.014;8.352;2023-05-07T05:53:17;2.35;;;1.48;;
28760;SDS011;15917;50.014;8.352;2023-05-07T05:55:43;3.97;;;1.70;;
28760;SDS011;15917;50.014;8.352;2023-05-07T05:58:11;6.97;;;1.95;;
28760;SDS011;15917;50.014;8.352;2023-05-07T06:00:40;7.95;;;2.10;;
28760;SDS011;15917;50.014;8.352;2023-05-07T06:03:06;4.55;;;1.92;;
28760;SDS011;15917;50.014;8.352;2023-05-07T06:05:33;4.97;;;2.10;;
28760;SDS011;15917;50.014;8.352;2023-05-07T06:07:59;11.40;;;2.10;;
28760;SDS011;15917;50.014;8.352;2023-05-07T06:10:29;2.47;;;1.50;;
28760;SDS011;15917;50.014;8.352;2023-05-07T06:12:55;4.00;;;1.90;;
28760;SDS011;15917;50.014;8.352;2023-05-07T06:15:21;5.68;;;2.10;;
28760;SDS011;15917;50.014;8.352;2023-05-07T06:17:47;14.90;;;2.17;;
28760;SDS011;15917;50.014;8.352;2023-05-07T06:20:14;3.72;;;1.90;;
28760;SDS011;15917;50.014;8.352;2023-05-07T06:22:39;5.68;;;1.83;;
28760;SDS011;15917;50.014;8.352;2023-05-07T06:25:07;3.90;;;1.97;;
28760;SDS011;15917;50.014;8.352;2023-05-07T06:27:33;2.30;;;1.95;;
28760;SDS011;15917;50.014;8.352;2023-05-07T06:29:58;3.15;;;1.95;;
28760;SDS011;15917;50.014;8.352;2023-05-07T06:32:24;7.90;;;2.10;;
28760;SDS011;15917;50.014;8.352;2023-05-07T06:34:50;3.88;;;1.90;;
28760;SDS011;15917;50.014;8.352;2023-05-07T06:37:16;5.00;;;1.75;;
28760;SDS011;15917;50.014;8.352;2023-05-07T06:40:04;5.32;;;2.17;;
28760;SDS011;15917;50.014;8.352;2023-05-07T06:42:33;7.20;;;2.38;;
28760;SDS011;15917;50.014;8.352;2023-05-07T06:45:15;3.05;;;1.98;;
28760;SDS011;15917;50.014;8.352;2023-05-07T06:47:41;3.85;;;2.10;;
28760;SDS011;15917;50.014;8.352;2023-05-07T06:50:07;5.82;;;2.35;;
28760;SDS011;15917;50.014;8.352;2023-05-07T06:52:33;3.10;;;1.77;;
28760;SDS011;15917;50.014;8.352;2023-05-07T06:55:00;6.57;;;2.13;;
28760;SDS011;15917;50.014;8.352;2023-05-07T06:57:26;9.35;;;2.60;;
28760;SDS011;15917;50.014;8.352;2023-05-07T06:59:51;4.03;;;1.92;;
28760;SDS011;15917;50.014;8.352;2023-05-07T07:02:18;6.03;;;2.00;;
28760;SDS011;15917;50.014;8.352;2023-05-07T07:04:44;3.33;;;1.75;;
28760;SDS011;15917;50.014;8.352;2023-05-07T07:07:10;7.43;;;1.98;;
28760;SDS011;15917;50.014;8.352;2023-05-07T07:09:37;5.53;;;2.55;;
28760;SDS011;15917;50.014;8.352;2023-05-07T07:12:04;14.03;;;2.30;;
28760;SDS011;15917;50.014;8.352;2023-05-07T07:14:30;6.10;;;1.98;;
28760;SDS011;15917;50.014;8.352;2023-05-07T07:16:56;5.72;;;2.40;;
28760;SDS011;15917;50.014;8.352;2023-05-07T07:19:23;4.80;;;2.37;;
28760;SDS011;15917;50.014;8.352;2023-05-07T07:21:51;5.40;;;1.77;;
28760;SDS011;15917;50.014;8.352;2023-05-07T07:24:17;4.80;;;1.77;;
28760;SDS011;15917;50.014;8.352;2023-05-07T07:26:47;6.10;;;2.40;;
28760;SDS011;15917;50.014;8.352;2023-05-07T07:29:13;4.07;;;1.80;;
28760;SDS011;15917;50.014;8.352;2023-05-07T07:31:40;5.35;;;2.05;;
28760;SDS011;15917;50.014;8.352;2023-05-07T07:34:06;3.15;;;1.88;;
28760;SDS011;15917;50.014;8.352;2023-05-07T07:36:32;3.28;;;2.13;;
28760;SDS011;15917;50.014;8.352;2023-05-07T07:38:58;5.10;;;2.20;;
28760;SDS011;15917;50.014;8.352;2023-05-07T07:41:23;2.83;;;2.05;;
28760;SDS011;15917;50.014;8.352;2023-05-07T07:43:49;3.25;;;2.10;;
28760;SDS011;15917;50.014;8.352;2023-05-07T07:46:18;2.63;;;2.03;;
28760;SDS011;15917;50.014;8.352;2023-05-07T07:48:43;6.45;;;1.80;;
28760;SDS011;15917;50.014;8.352;2023-05-07T07:51:09;4.70;;;2.05;;
28760;SDS011;15917;50.014;8.352;2023-05-07T07:53:35;3.08;;;1.80;;
28760;SDS011;15917;50.014;8.352;2023-05-07T07:56:01;6.00;;;2.08;;
28760;SDS011;15917;50.014;8.352;2023-05-07T07:58:30;4.95;;;2.45;;
28760;SDS011;15917;50.014;8.352;2023-05-07T08:00:56;3.38;;;1.98;;
28760;SDS011;15917;50.014;8.352;2023-05-07T08:03:22;2.88;;;2.20;;
28760;SDS011;15917;50.014;8.352;2023-05-07T08:05:52;2.78;;;2.15;;
28760;SDS011;15917;50.014;8.352;2023-05-07T08:08:18;3.75;;;2.38;;
28760;SDS011;15917;50.014;8.352;2023-05-07T08:10:44;4.00;;;2.13;;
28760;SDS011;15917;50.014;8.352;2023-05-07T08:13:18;4.53;;;2.40;;
28760;SDS011;15917;50.014;8.352;2023-05-07T08:15:43;7.93;;;2.20;;
28760;SDS011;15917;50.014;8.352;2023-05-07T08:18:10;5.20;;;2.60;;
28760;SDS011;15917;50.014;8.352;2023-05-07T08:20:37;7.75;;;2.28;;
28760;SDS011;15917;50.014;8.352;2023-05-07T08:23:07;4.60;;;2.17;;
28760;SDS011;15917;50.014;8.352;2023-05-07T08:25:33;2.70;;;2.28;;
28760;SDS011;15917;50.014;8.352;2023-05-07T08:27:59;6.93;;;2.50;;
28760;SDS011;15917;50.014;8.352;2023-05-07T08:30:25;4.30;;;2.60;;
28760;SDS011;15917;50.014;8.352;2023-05-07T08:32:52;4.65;;;2.67;;
28760;SDS011;15917;50.014;8.352;2023-05-07T08:35:17;3.50;;;2.00;;
28760;SDS011;15917;50.014;8.352;2023-05-07T08:37:43;3.83;;;2.05;;
28760;SDS011;15917;50.014;8.352;2023-05-07T08:40:09;5.50;;;2.10;;
28760;SDS011;15917;50.014;8.352;2023-05-07T08:42:36;6.28;;;2.47;;
28760;SDS011;15917;50.014;8.352;2023-05-07T08:45:03;5.00;;;2.75;;
28760;SDS011;15917;50.014;8.352;2023-05-07T08:47:36;6.18;;;2.30;;
28760;SDS011;15917;50.014;8.352;2023-05-07T08:50:07;8.10;;;3.05;;
28760;SDS011;15917;50.014;8.352;2023-05-07T08:52:33;5.05;;;2.85;;
28760;SDS011;15917;50.014;8.352;2023-05-07T08:55:01;5.38;;;2.60;;
28760;SDS011;15917;50.014;8.352;2023-05-07T08:57:27;10.13;;;4.07;;
28760;SDS011;15917;50.014;8.352;2023-05-07T08:59:53;9.80;;;2.92;;
28760;SDS011;15917;50.014;8.352;2023-05-07T09:02:19;6.90;;;2.50;;
28760;SDS011;15917;50.014;8.352;2023-05-07T09:04:45;5.20;;;2.85;;
28760;SDS011;15917;50.014;8.352;2023-05-07T09:07:11;4.85;;;2.65;;
28760;SDS011;15917;50.014;8.352;2023-05-07T09:09:40;9.55;;;2.92;;
28760;SDS011;15917;50.014;8.352;2023-05-07T09:12:07;4.20;;;2.88;;
28760;SDS011;15917;50.014;8.352;2023-05-07T09:14:33;4.25;;;2.50;;
28760;SDS011;15917;50.014;8.352;2023-05-07T09:17:01;8.27;;;2.90;;
28760;SDS011;15917;50.014;8.352;2023-05-07T09:19:27;5.25;;;3.03;;
28760;SDS011;15917;50.014;8.352;2023-05-07T09:24:24;3.67;;;2.60;;
28760;SDS011;15917;50.014;8.352;2023-05-07T09:26:50;5.10;;;2.58;;
28760;SDS011;15917;50.014;8.352;2023-05-07T09:29:16;3.25;;;2.33;;
28760;SDS011;15917;50.014;8.352;2023-05-07T09:31:42;5.03;;;2.50;;
28760;SDS011;15917;50.014;8.352;2023-05-07T09:34:12;5.82;;;2.47;;
28760;SDS011;15917;50.014;8.352;2023-05-07T09:36:40;4.53;;;2.47;;
28760;SDS011;15917;50.014;8.352;2023-05-07T09:39:05;5.35;;;2.40;;
28760;SDS011;15917;50.014;8.352;2023-05-07T09:41:31;3.33;;;2.60;;
28760;SDS011;15917;50.014;8.352;2023-05-07T09:44:12;3.58;;;2.67;;
28760;SDS011;15917;50.014;8.352;2023-05-07T09:46:43;5.60;;;2.92;;
28760;SDS011;15917;50.014;8.352;2023-05-07T09:49:21;6.97;;;3.00;;
28760;SDS011;15917;50.014;8.352;2023-05-07T09:51:51;6.90;;;2.70;;
28760;SDS011;15917;50.014;8.352;2023-05-07T09:54:19;6.90;;;2.50;;
28760;SDS011;15917;50.014;8.352;2023-05-07T09:56:48;8.88;;;2.55;;
28760;SDS011;15917;50.014;8.352;2023-05-07T09:59:16;7.78;;;2.80;;
28760;SDS011;15917;50.014;8.352;2023-05-07T10:01:43;6.32;;;3.15;;
28760;SDS011;15917;50.014;8.352;2023-05-07T10:04:11;6.85;;;2.72;;
28760;SDS011;15917;50.014;8.352;2023-05-07T10:06:38;6.88;;;2.80;;
28760;SDS011;15917;50.014;8.352;2023-05-07T10:09:05;7.90;;;2.90;;
28760;SDS011;15917;50.014;8.352;2023-05-07T10:11:34;22.63;;;3.08;;
28760;SDS011;15917;50.014;8.352;2023-05-07T10:14:01;8.82;;;3.22;;
28760;SDS011;15917;50.014;8.352;2023-05-07T10:16:31;4.50;;;2.70;;
28760;SDS011;15917;50.014;8.352;2023-05-07T10:18:58;6.03;;;2.63;;
28760;SDS011;15917;50.014;8.352;2023-05-07T10:21:26;2.88;;;2.25;;
28760;SDS011;15917;50.014;8.352;2023-05-07T10:23:58;5.75;;;2.65;;
28760;SDS011;15917;50.014;8.352;2023-05-07T10:26:31;4.53;;;2.70;;
28760;SDS011;15917;50.014;8.352;2023-05-07T10:29:06;7.38;;;2.97;;
28760;SDS011;15917;50.014;8.352;2023-05-07T10:31:44;7.53;;;2.63;;
28760;SDS011;15917;50.014;8.352;2023-05-07T10:34:25;8.63;;;2.42;;
28760;SDS011;15917;50.014;8.352;2023-05-07T10:36:55;6.95;;;2.78;;
28760;SDS011;15917;50.014;8.352;2023-05-07T10:39:22;4.05;;;2.55;;
28760;SDS011;15917;50.014;8.352;2023-05-07T10:41:49;4.83;;;3.07;;
28760;SDS011;15917;50.014;8.352;2023-05-07T10:44:25;5.28;;;2.92;;
28760;SDS011;15917;50.014;8.352;2023-05-07T10:47:08;5.03;;;2.40;;
28760;SDS011;15917;50.014;8.352;2023-05-07T10:52:18;5.40;;;2.58;;
28760;SDS011;15917;50.014;8.352;2023-05-07T10:58:43;5.60;;;2.47;;
28760;SDS011;15917;50.014;8.352;2023-05-07T11:01:01;5.25;;;2.55;;
28760;SDS011;15917;50.014;8.352;2023-05-07T11:03:34;9.25;;;2.15;;
28760;SDS011;15917;50.014;8.352;2023-05-07T11:06:14;5.20;;;2.30;;
28760;SDS011;15917;50.014;8.352;2023-05-07T11:11:45;4.75;;;2.28;;
28760;SDS011;15917;50.014;8.352;2023-05-07T11:14:44;7.82;;;2.40;;
28760;SDS011;15917;50.014;8.352;2023-05-07T11:17:15;4.80;;;2.20;;
28760;SDS011;15917;50.014;8.352;2023-05-07T11:19:51;4.75;;;2.00;;
28760;SDS011;15917;50.014;8.352;2023-05-07T11:22:56;5.38;;;1.65;;
28760;SDS011;15917;50.014;8.352;2023-05-07T11:25:43;1.55;;;1.45;;
28760;SDS011;15917;50.014;8.352;2023-05-07T11:28:17;5.60;;;2.38;;
28760;SDS011;15917;50.014;8.352;2023-05-07T11:30:54;2.72;;;2.00;;
28760;SDS011;15917;50.014;8.352;2023-05-07T11:33:22;8.30;;;1.85;;
28760;SDS011;15917;50.014;8.352;2023-05-07T11:35:50;3.17;;;1.70;;
28760;SDS011;15917;50.014;8.352;2023-05-07T11:38:21;7.68;;;2.08;;
28760;SDS011;15917;50.014;8.352;2023-05-07T11:40:49;3.70;;;2.10;;
28760;SDS011;15917;50.014;8.352;2023-05-07T11:43:18;4.38;;;2.15;;
28760;SDS011;15917;50.014;8.352;2023-05-07T11:45:44;4.32;;;2.85;;
28760;SDS011;15917;50.014;8.352;2023-05-07T11:48:12;4.95;;;2.17;;
28760;SDS011;15917;50.014;8.352;2023-05-07T11:53:17;4.13;;;2.72;;
28760;SDS011;15917;50.014;8.352;2023-05-07T11:55:43;4.20;;;2.20;;
28760;SDS011;15917;50.014;8.352;2023-05-07T11:58:10;7.85;;;2.58;;
28760;SDS011;15917;50.014;8.352;2023-05-07T12:00:37;7.25;;;2.83;;
28760;SDS011;15917;50.014;8.352;2023-05-07T12:03:06;3.40;;;1.40;;
28760;SDS011;15917;50.014;8.352;2023-05-07T12:05:31;2.30;;;1.58;;
28760;SDS011;15917;50.014;8.352;2023-05-07T12:07:57;2.45;;;1.40;;
28760;SDS011;15917;50.014;8.352;2023-05-07T12:10:23;3.25;;;1.70;;
28760;SDS011;15917;50.014;8.352;2023-05-07T12:12:50;2.10;;;1.40;;
28760;SDS011;15917;50.014;8.352;2023-05-07T12:15:17;4.95;;;1.52;;
28760;SDS011;15917;50.014;8.352;2023-05-07T12:17:42;1.35;;;1.02;;
28760;SDS011;15917;50.014;8.352;2023-05-07T12:20:09;4.38;;;1.40;;
28760;SDS011;15917;50.014;8.352;2023-05-07T12:22:35;3.05;;;1.42;;
28760;SDS011;15917;50.014;8.352;2023-05-07T12:25:01;3.33;;;1.50;;
28760;SDS011;15917;50.014;8.352;2023-05-07T12:27:28;1.88;;;1.20;;
28760;SDS011;15917;50.014;8.352;2023-05-07T12:29:53;4.32;;;1.30;;
28760;SDS011;15917;50.014;8.352;2023-05-07T12:32:20;3.78;;;1.15;;
28760;SDS011;15917;50.014;8.352;2023-05-07T12:34:46;2.97;;;1.50;;
28760;SDS011;15917;50.014;8.352;2023-05-07T12:37:14;7.10;;;1.50;;
28760;SDS011;15917;50.014;8.352;2023-05-07T12:39:50;5.30;;;1.23;;
28760;SDS011;15917;50.014;8.352;2023-05-07T12:42:33;6.43;;;1.48;;
28760;SDS011;15917;50.014;8.352;2023-05-07T12:45:15;7.43;;;1.63;;
28760;SDS011;15917;50.014;8.352;2023-05-07T12:47:44;3.25;;;0.98;;
28760;SDS011;15917;50.014;8.352;2023-05-07T12:50:10;3.25;;;1.25;;
28760;SDS011;15917;50.014;8.352;2023-05-07T12:52:36;1.90;;;0.85;;
28760;SDS011;15917;50.014;8.352;2023-05-07T12:55:05;2.47;;;1.10;;
28760;SDS011;15917;50.014;8.352;2023-05-07T12:57:43;1.75;;;0.98;;
28760;SDS011;15917;50.014;8.352;2023-05-07T13:00:32;3.17;;;1.10;;
28760;SDS011;15917;50.014;8.352;2023-05-07T13:03:01;2.55;;;1.10;;
28760;SDS011;15917;50.014;8.352;2023-05-07T13:05:27;4.78;;;1.30;;
28760;SDS011;15917;50.014;8.352;2023-05-07T13:07:53;1.48;;;1.15;;
28760;SDS011;15917;50.014;8.352;2023-05-07T13:10:19;2.15;;;1.42;;
28760;SDS011;15917;50.014;8.352;2023-05-07T13:12:45;4.13;;;1.23;;
28760;SDS011;15917;50.014;8.352;2023-05-07T13:15:10;3.00;;;1.40;;
28760;SDS011;15917;50.014;8.352;2023-05-07T13:17:36;2.58;;;1.30;;
28760;SDS011;15917;50.014;8.352;2023-05-07T13:20:02;2.70;;;1.33;;
28760;SDS011;15917;50.014;8.352;2023-05-07T13:22:28;2.90;;;1.20;;
28760;SDS011;15917;50.014;8.352;2023-05-07T13:24:54;3.58;;;1.60;;
28760;SDS011;15917;50.014;8.352;2023-05-07T13:27:19;3.00;;;1.40;;
28760;SDS011;15917;50.014;8.352;2023-05-07T13:29:45;6.57;;;1.17;;
28760;SDS011;15917;50.014;8.352;2023-05-07T13:32:10;5.43;;;1.05;;
28760;SDS011;15917;50.014;8.352;2023-05-07T13:34:36;6.32;;;1.35;;
28760;SDS011;15917;50.014;8.352;2023-05-07T13:37:02;2.90;;;1.10;;
28760;SDS011;15917;50.014;8.352;2023-05-07T13:39:27;2.72;;;1.33;;
28760;SDS011;15917;50.014;8.352;2023-05-07T13:41:53;2.17;;;1.05;;
28760;SDS011;15917;50.014;8.352;2023-05-07T13:44:19;5.25;;;1.08;;
28760;SDS011;15917;50.014;8.352;2023-05-07T13:46:44;4.57;;;1.35;;
28760;SDS011;15917;50.014;8.352;2023-05-07T13:49:10;1.17;;;0.98;;
28760;SDS011;15917;50.014;8.352;2023-05-07T13:51:37;2.05;;;1.17;;
28760;SDS011;15917;50.014;8.352;2023-05-07T13:54:03;3.20;;;1.00;;
28760;SDS011;15917;50.014;8.352;2023-05-07T13:56:29;2.35;;;1.10;;
28760;SDS011;15917;50.014;8.352;2023-05-07T13:58:56;6.90;;;1.60;;
28760;SDS011;15917;50.014;8.352;2023-05-07T14:01:22;4.18;;;1.48;;
28760;SDS011;15917;50.014;8.352;2023-05-07T14:03:48;4.20;;;1.13;;
28760;SDS011;15917;50.014;8.352;2023-05-07T14:06:14;5.20;;;1.63;;
28760;SDS011;15917;50.014;8.352;2023-05-07T14:08:39;5.88;;;1.20;;
28760;SDS011;15917;50.014;8.352;2023-05-07T14:11:05;3.33;;;1.20;;
28760;SDS011;15917;50.014;8.352;2023-05-07T14:13:31;4.80;;;1.40;;
28760;SDS011;15917;50.014;8.352;2023-05-07T14:15:57;2.78;;;1.42;;
28760;SDS011;15917;50.014;8.352;2023-05-07T14:18:23;1.38;;;1.08;;
28760;SDS011;15917;50.014;8.352;2023-05-07T14:20:49;6.07;;;1.33;;
28760;SDS011;15917;50.014;8.352;2023-05-07T14:23:14;4.25;;;1.45;;
28760;SDS011;15917;50.014;8.352;2023-05-07T14:25:41;4.45;;;1.20;;
28760;SDS011;15917;50.014;8.352;2023-05-07T14:28:08;2.13;;;1.50;;
28760;SDS011;15917;50.014;8.352;2023-05-07T14:30:34;1.92;;;1.30;;
28760;SDS011;15917;50.014;8.352;2023-05-07T14:33:00;2.67;;;1.25;;
28760;SDS011;15917;50.014;8.352;2023-05-07T14:35:25;2.85;;;1.50;;
28760;SDS011;15917;50.014;8.352;2023-05-07T14:37:51;7.55;;;1.88;;
28760;SDS011;15917;50.014;8.352;2023-05-07T14:40:16;3.28;;;1.75;;
28760;SDS011;15917;50.014;8.352;2023-05-07T14:42:42;2.22;;;1.48;;
28760;SDS011;15917;50.014;8.352;2023-05-07T14:45:08;2.53;;;1.98;;
28760;SDS011;15917;50.014;8.352;2023-05-07T14:47:34;4.22;;;2.00;;
28760;SDS011;15917;50.014;8.352;2023-05-07T14:50:00;4.22;;;2.10;;
28760;SDS011;15917;50.014;8.352;2023-05-07T14:52:26;3.15;;;1.90;;
28760;SDS011;15917;50.014;8.352;2023-05-07T14:54:52;5.22;;;1.90;;
28760;SDS011;15917;50.014;8.352;2023-05-07T14:57:17;2.70;;;1.90;;
28760;SDS011;15917;50.014;8.352;2023-05-07T14:59:44;5.78;;;2.13;;
28760;SDS011;15917;50.014;8.352;2023-05-07T15:02:10;4.72;;;2.28;;
28760;SDS011;15917;50.014;8.352;2023-05-07T15:04:37;3.08;;;2.28;;